sensor_id;sensor_type;location;lat;lon;timestamp;temperature;humidity
51733;DHT22;39139;53.144;6.244;2022-11-15T00:00:46;7.50;99.90
51733;DHT22;39139;53.144;6.244;2022-11-15T00:03:16;7.40;99.90
51733;DHT22;39139;53.144;6.244;2022-11-15T00:05:42;7.40;99.90
51733;DHT22;39139;53.144;6.244;2022-11-15T00:08:08;7.30;99.90
51733;DHT22;39139;53.144;6.244;2022-11-15T00:10:34;7.30;99.90
51733;DHT22;39139;53.144;6.244;2022-11-15T00:13:05;7.20;99.90
51733;DHT22;39139;53.144;6.244;2022-11-15T00:15:31;7.10;99.90
51733;DHT22;39139;53.144;6.244;2022-11-15T00:17:56;7.00;99.90
51733;DHT22;39139;53.144;6.244;2022-11-15T00:20:22;7.10;99.90
51733;DHT22;39139;53.144;6.244;2022-11-15T00:22:47;7.10;99.90
51733;DHT22;39139;53.144;6.244;2022-11-15T00:25:13;7.10;99.90
51733;DHT22;39139;53.144;6.244;2022-11-15T00:27:39;7.10;99.90
51733;DHT22;39139;53.144;6.244;2022-11-15T00:30:05;7.20;99.90
51733;DHT22;39139;53.144;6.244;2022-11-15T00:32:31;7.10;99.90
51733;DHT22;39139;53.144;6.244;2022-11-15T00:34:57;7.20;99.90
51733;DHT22;39139;53.144;6.244;2022-11-15T00:37:23;7.50;99.90
51733;DHT22;39139;53.144;6.244;2022-11-15T00:39:48;7.20;99.90
51733;DHT22;39139;53.144;6.244;2022-11-15T00:42:14;7.30;99.90
51733;DHT22;39139;53.144;6.244;2022-11-15T00:44:39;7.30;99.90
51733;DHT22;39139;53.144;6.244;2022-11-15T00:47:05;7.30;99.90
51733;DHT22;39139;53.144;6.244;2022-11-15T00:49:31;7.50;99.90
51733;DHT22;39139;53.144;6.244;2022-11-15T00:51:59;7.40;99.90
51733;DHT22;39139;53.144;6.244;2022-11-15T00:54:25;7.50;99.90
51733;DHT22;39139;53.144;6.244;2022-11-15T00:56:50;7.40;99.90
51733;DHT22;39139;53.144;6.244;2022-11-15T00:59:16;7.40;99.90
51733;DHT22;39139;53.144;6.244;2022-11-15T01:01:42;7.40;99.90
51733;DHT22;39139;53.144;6.244;2022-11-15T01:04:07;7.70;99.90
51733;DHT22;39139;53.144;6.244;2022-11-15T01:06:33;7.50;99.90
51733;DHT22;39139;53.144;6.244;2022-11-15T01:08:58;7.50;99.90
51733;DHT22;39139;53.144;6.244;2022-11-15T01:11:24;7.50;99.90
51733;DHT22;39139;53.144;6.244;2022-11-15T01:13:50;7.40;99.90
51733;DHT22;39139;53.144;6.244;2022-11-15T01:16:17;7.90;99.90
51733;DHT22;39139;53.144;6.244;2022-11-15T01:18:44;7.50;99.90
51733;DHT22;39139;53.144;6.244;2022-11-15T01:21:13;7.50;99.90
51733;DHT22;39139;53.144;6.244;2022-11-15T01:23:38;7.40;99.90
51733;DHT22;39139;53.144;6.244;2022-11-15T01:26:06;7.40;99.90
51733;DHT22;39139;53.144;6.244;2022-11-15T01:28:34;7.70;99.90
51733;DHT22;39139;53.144;6.244;2022-11-15T01:31:06;7.40;99.90
51733;DHT22;39139;53.144;6.244;2022-11-15T01:33:34;7.40;99.90
51733;DHT22;39139;53.144;6.244;2022-11-15T01:36:04;7.40;99.90
51733;DHT22;39139;53.144;6.244;2022-11-15T01:38:30;7.40;99.90
51733;DHT22;39139;53.144;6.244;2022-11-15T01:40:56;7.40;99.90
51733;DHT22;39139;53.144;6.244;2022-11-15T01:43:26;7.40;99.90
51733;DHT22;39139;53.144;6.244;2022-11-15T01:46:04;7.30;99.90
51733;DHT22;39139;53.144;6.244;2022-11-15T01:48:34;7.30;99.90
51733;DHT22;39139;53.144;6.244;2022-11-15T01:51:03;7.30;99.90
51733;DHT22;39139;53.144;6.244;2022-11-15T01:53:32;7.20;99.90
51733;DHT22;39139;53.144;6.244;2022-11-15T01:56:02;7.20;99.90
51733;DHT22;39139;53.144;6.244;2022-11-15T01:58:29;7.20;99.90
51733;DHT22;39139;53.144;6.244;2022-11-15T02:00:55;7.20;99.90
51733;DHT22;39139;53.144;6.244;2022-11-15T02:03:22;7.10;99.90
51733;DHT22;39139;53.144;6.244;2022-11-15T02:05:51;7.20;99.90
51733;DHT22;39139;53.144;6.244;2022-11-15T02:08:17;7.10;99.90
51733;DHT22;39139;53.144;6.244;2022-11-15T02:10:46;7.20;99.90
51733;DHT22;39139;53.144;6.244;2022-11-15T02:13:16;7.10;99.90
51733;DHT22;39139;53.144;6.244;2022-11-15T02:15:52;7.00;99.90
51733;DHT22;39139;53.144;6.244;2022-11-15T02:18:41;7.10;99.90
51733;DHT22;39139;53.144;6.244;2022-11-15T02:21:12;7.10;99.90
51733;DHT22;39139;53.144;6.244;2022-11-15T02:23:59;7.10;99.90
51733;DHT22;39139;53.144;6.244;2022-11-15T02:26:52;7.10;99.90
51733;DHT22;39139;53.144;6.244;2022-11-15T02:32:41;7.10;99.90
51733;DHT22;39139;53.144;6.244;2022-11-15T02:37:51;7.10;99.90
51733;DHT22;39139;53.144;6.244;2022-11-15T02:40:37;7.10;99.90
51733;DHT22;39139;53.144;6.244;2022-11-15T02:43:10;7.10;99.90
51733;DHT22;39139;53.144;6.244;2022-11-15T02:46:19;7.10;99.90
51733;DHT22;39139;53.144;6.244;2022-11-15T02:48:48;7.20;99.90
51733;DHT22;39139;53.144;6.244;2022-11-15T02:51:14;7.10;99.90
51733;DHT22;39139;53.144;6.244;2022-11-15T02:53:41;7.00;99.90
51733;DHT22;39139;53.144;6.244;2022-11-15T02:56:09;7.00;99.90
51733;DHT22;39139;53.144;6.244;2022-11-15T02:58:57;7.00;99.90
51733;DHT22;39139;53.144;6.244;2022-11-15T03:01:42;7.10;99.90
51733;DHT22;39139;53.144;6.244;2022-11-15T03:07:15;7.00;99.90
51733;DHT22;39139;53.144;6.244;2022-11-15T03:10:06;7.00;99.90
51733;DHT22;39139;53.144;6.244;2022-11-15T03:13:07;7.10;99.90
51733;DHT22;39139;53.144;6.244;2022-11-15T03:15:36;7.00;99.90
51733;DHT22;39139;53.144;6.244;2022-11-15T03:18:10;7.10;99.90
51733;DHT22;39139;53.144;6.244;2022-11-15T03:20:38;7.10;99.90
51733;DHT22;39139;53.144;6.244;2022-11-15T03:23:09;7.00;99.90
51733;DHT22;39139;53.144;6.244;2022-11-15T03:25:37;7.10;99.90
51733;DHT22;39139;53.144;6.244;2022-11-15T03:28:05;7.10;99.90
51733;DHT22;39139;53.144;6.244;2022-11-15T03:30:35;7.00;99.90
51733;DHT22;39139;53.144;6.244;2022-11-15T03:33:02;7.10;99.90
51733;DHT22;39139;53.144;6.244;2022-11-15T03:35:35;7.10;99.90
51733;DHT22;39139;53.144;6.244;2022-11-15T03:38:25;7.20;99.90
51733;DHT22;39139;53.144;6.244;2022-11-15T03:40:58;7.20;99.90
51733;DHT22;39139;53.144;6.244;2022-11-15T03:43:41;7.20;99.90
51733;DHT22;39139;53.144;6.244;2022-11-15T03:46:14;7.20;99.90
51733;DHT22;39139;53.144;6.244;2022-11-15T03:48:52;7.20;99.90
51733;DHT22;39139;53.144;6.244;2022-11-15T03:51:19;7.30;99.90
51733;DHT22;39139;53.144;6.244;2022-11-15T03:53:45;7.30;99.90
51733;DHT22;39139;53.144;6.244;2022-11-15T03:56:11;7.20;99.90
51733;DHT22;39139;53.144;6.244;2022-11-15T03:58:36;7.30;99.90
51733;DHT22;39139;53.144;6.244;2022-11-15T04:01:02;7.40;99.90
51733;DHT22;39139;53.144;6.244;2022-11-15T04:03:28;7.30;99.90
51733;DHT22;39139;53.144;6.244;2022-11-15T04:05:53;7.30;99.90
51733;DHT22;39139;53.144;6.244;2022-11-15T04:08:19;7.30;99.90
51733;DHT22;39139;53.144;6.244;2022-11-15T04:10:44;7.30;99.90
51733;DHT22;39139;53.144;6.244;2022-11-15T04:13:10;7.40;99.90
51733;DHT22;39139;53.144;6.244;2022-11-15T04:15:36;7.40;99.90
51733;DHT22;39139;53.144;6.244;2022-11-15T04:18:01;7.50;99.90
51733;DHT22;39139;53.144;6.244;2022-11-15T04:20:29;7.50;99.90
51733;DHT22;39139;53.144;6.244;2022-11-15T04:23:19;7.40;99.90
51733;DHT22;39139;53.144;6.244;2022-11-15T04:26:04;7.50;99.90
51733;DHT22;39139;53.144;6.244;2022-11-15T04:28:30;7.50;99.90
51733;DHT22;39139;53.144;6.244;2022-11-15T04:30:56;7.40;99.90
51733;DHT22;39139;53.144;6.244;2022-11-15T04:33:22;7.50;99.90
51733;DHT22;39139;53.144;6.244;2022-11-15T04:35:47;7.60;99.90
51733;DHT22;39139;53.144;6.244;2022-11-15T04:38:34;7.60;99.90
51733;DHT22;39139;53.144;6.244;2022-11-15T04:41:00;7.80;99.90
51733;DHT22;39139;53.144;6.244;2022-11-15T04:43:26;7.60;99.90
51733;DHT22;39139;53.144;6.244;2022-11-15T04:45:52;7.70;99.90
51733;DHT22;39139;53.144;6.244;2022-11-15T04:48:18;6.30;99.90
51733;DHT22;39139;53.144;6.244;2022-11-15T04:50:43;7.70;99.90
51733;DHT22;39139;53.144;6.244;2022-11-15T04:53:09;7.70;99.90
51733;DHT22;39139;53.144;6.244;2022-11-15T04:55:34;7.70;99.90
51733;DHT22;39139;53.144;6.244;2022-11-15T04:58:01;7.70;99.90
51733;DHT22;39139;53.144;6.244;2022-11-15T05:00:27;7.80;99.90
51733;DHT22;39139;53.144;6.244;2022-11-15T05:02:54;7.80;99.90
51733;DHT22;39139;53.144;6.244;2022-11-15T05:05:38;7.90;99.90
51733;DHT22;39139;53.144;6.244;2022-11-15T05:08:03;7.80;99.90
51733;DHT22;39139;53.144;6.244;2022-11-15T05:10:29;7.80;99.90
51733;DHT22;39139;53.144;6.244;2022-11-15T05:12:55;8.00;99.90
51733;DHT22;39139;53.144;6.244;2022-11-15T05:15:21;8.10;99.90
51733;DHT22;39139;53.144;6.244;2022-11-15T05:17:47;7.90;99.90
51733;DHT22;39139;53.144;6.244;2022-11-15T05:20:12;8.00;99.90
51733;DHT22;39139;53.144;6.244;2022-11-15T05:22:39;8.20;99.90
51733;DHT22;39139;53.144;6.244;2022-11-15T05:25:05;8.20;99.90
51733;DHT22;39139;53.144;6.244;2022-11-15T05:27:32;8.00;99.90
51733;DHT22;39139;53.144;6.244;2022-11-15T05:29:57;8.00;99.90
51733;DHT22;39139;53.144;6.244;2022-11-15T05:32:23;8.20;99.90
51733;DHT22;39139;53.144;6.244;2022-11-15T05:34:49;8.30;99.90
51733;DHT22;39139;53.144;6.244;2022-11-15T05:37:16;8.30;99.90
51733;DHT22;39139;53.144;6.244;2022-11-15T05:39:41;8.20;99.90
51733;DHT22;39139;53.144;6.244;2022-11-15T05:42:12;8.40;99.90
51733;DHT22;39139;53.144;6.244;2022-11-15T05:44:41;8.30;99.90
51733;DHT22;39139;53.144;6.244;2022-11-15T05:47:10;8.30;99.90
51733;DHT22;39139;53.144;6.244;2022-11-15T05:49:37;8.30;99.90
51733;DHT22;39139;53.144;6.244;2022-11-15T05:52:05;8.50;99.90
51733;DHT22;39139;53.144;6.244;2022-11-15T05:54:32;8.60;99.90
51733;DHT22;39139;53.144;6.244;2022-11-15T05:56:59;8.70;99.90
51733;DHT22;39139;53.144;6.244;2022-11-15T05:59:25;8.50;99.90
51733;DHT22;39139;53.144;6.244;2022-11-15T06:01:53;8.70;99.90
51733;DHT22;39139;53.144;6.244;2022-11-15T06:04:18;8.70;99.90
51733;DHT22;39139;53.144;6.244;2022-11-15T06:06:44;8.60;99.90
51733;DHT22;39139;53.144;6.244;2022-11-15T06:09:10;8.80;99.90
51733;DHT22;39139;53.144;6.244;2022-11-15T06:11:35;8.70;99.90
51733;DHT22;39139;53.144;6.244;2022-11-15T06:14:01;8.70;99.90
51733;DHT22;39139;53.144;6.244;2022-11-15T06:16:26;8.80;99.90
51733;DHT22;39139;53.144;6.244;2022-11-15T06:18:52;9.00;99.90
51733;DHT22;39139;53.144;6.244;2022-11-15T06:21:18;8.90;99.90
51733;DHT22;39139;53.144;6.244;2022-11-15T06:23:44;8.90;99.90
51733;DHT22;39139;53.144;6.244;2022-11-15T06:26:09;9.10;99.90
51733;DHT22;39139;53.144;6.244;2022-11-15T06:28:35;8.90;99.90
51733;DHT22;39139;53.144;6.244;2022-11-15T06:31:08;8.90;99.90
51733;DHT22;39139;53.144;6.244;2022-11-15T06:33:34;9.20;99.90
51733;DHT22;39139;53.144;6.244;2022-11-15T06:36:02;9.20;99.90
51733;DHT22;39139;53.144;6.244;2022-11-15T06:38:28;9.00;99.90
51733;DHT22;39139;53.144;6.244;2022-11-15T06:41:03;9.30;99.90
51733;DHT22;39139;53.144;6.244;2022-11-15T06:43:29;9.20;99.90
51733;DHT22;39139;53.144;6.244;2022-11-15T06:45:56;10.00;99.90
51733;DHT22;39139;53.144;6.244;2022-11-15T06:48:22;9.20;99.90
51733;DHT22;39139;53.144;6.244;2022-11-15T06:50:52;9.40;99.90
51733;DHT22;39139;53.144;6.244;2022-11-15T06:53:18;9.30;99.90
51733;DHT22;39139;53.144;6.244;2022-11-15T06:55:44;9.40;99.90
51733;DHT22;39139;53.144;6.244;2022-11-15T06:58:10;9.30;99.90
51733;DHT22;39139;53.144;6.244;2022-11-15T07:00:35;9.60;99.90
51733;DHT22;39139;53.144;6.244;2022-11-15T07:03:01;9.30;99.90
51733;DHT22;39139;53.144;6.244;2022-11-15T07:05:27;9.50;99.90
51733;DHT22;39139;53.144;6.244;2022-11-15T07:07:54;9.40;99.90
51733;DHT22;39139;53.144;6.244;2022-11-15T07:10:21;9.50;99.90
51733;DHT22;39139;53.144;6.244;2022-11-15T07:12:52;9.60;99.90
51733;DHT22;39139;53.144;6.244;2022-11-15T07:15:22;9.40;99.90
51733;DHT22;39139;53.144;6.244;2022-11-15T07:17:48;10.00;99.90
51733;DHT22;39139;53.144;6.244;2022-11-15T07:20:14;9.70;99.90
51733;DHT22;39139;53.144;6.244;2022-11-15T07:22:41;9.50;99.90
51733;DHT22;39139;53.144;6.244;2022-11-15T07:25:08;9.80;99.90
51733;DHT22;39139;53.144;6.244;2022-11-15T07:27:34;9.60;99.90
51733;DHT22;39139;53.144;6.244;2022-11-15T07:30:00;9.70;99.90
51733;DHT22;39139;53.144;6.244;2022-11-15T07:32:26;9.80;99.90
51733;DHT22;39139;53.144;6.244;2022-11-15T07:34:51;10.10;99.90
51733;DHT22;39139;53.144;6.244;2022-11-15T07:37:17;10.00;99.90
51733;DHT22;39139;53.144;6.244;2022-11-15T07:39:43;9.90;99.90
51733;DHT22;39139;53.144;6.244;2022-11-15T07:42:09;9.90;99.90
51733;DHT22;39139;53.144;6.244;2022-11-15T07:44:54;9.80;99.90
51733;DHT22;39139;53.144;6.244;2022-11-15T07:47:20;9.90;99.90
51733;DHT22;39139;53.144;6.244;2022-11-15T07:49:46;9.80;99.90
51733;DHT22;39139;53.144;6.244;2022-11-15T07:52:12;9.80;99.90
51733;DHT22;39139;53.144;6.244;2022-11-15T07:54:38;10.10;99.90
51733;DHT22;39139;53.144;6.244;2022-11-15T07:57:04;10.10;99.90
51733;DHT22;39139;53.144;6.244;2022-11-15T07:59:30;10.10;99.90
51733;DHT22;39139;53.144;6.244;2022-11-15T08:01:56;10.20;99.90
51733;DHT22;39139;53.144;6.244;2022-11-15T08:04:22;10.00;99.90
51733;DHT22;39139;53.144;6.244;2022-11-15T08:06:47;10.10;99.90
51733;DHT22;39139;53.144;6.244;2022-11-15T08:09:13;10.30;99.90
51733;DHT22;39139;53.144;6.244;2022-11-15T08:11:38;10.10;99.90
51733;DHT22;39139;53.144;6.244;2022-11-15T08:14:04;10.20;99.90
51733;DHT22;39139;53.144;6.244;2022-11-15T08:16:30;10.30;99.90
51733;DHT22;39139;53.144;6.244;2022-11-15T08:18:55;10.20;99.90
51733;DHT22;39139;53.144;6.244;2022-11-15T08:21:21;10.40;99.90
51733;DHT22;39139;53.144;6.244;2022-11-15T08:23:47;10.40;99.90
51733;DHT22;39139;53.144;6.244;2022-11-15T08:26:13;10.50;99.90
51733;DHT22;39139;53.144;6.244;2022-11-15T08:28:38;10.30;99.90
51733;DHT22;39139;53.144;6.244;2022-11-15T08:31:04;10.60;99.90
51733;DHT22;39139;53.144;6.244;2022-11-15T08:33:31;10.60;99.90
51733;DHT22;39139;53.144;6.244;2022-11-15T08:35:59;10.60;99.90
51733;DHT22;39139;53.144;6.244;2022-11-15T08:38:25;10.70;99.90
51733;DHT22;39139;53.144;6.244;2022-11-15T08:40:53;10.50;99.90
51733;DHT22;39139;53.144;6.244;2022-11-15T08:43:19;10.60;99.90
51733;DHT22;39139;53.144;6.244;2022-11-15T08:45:45;10.60;99.90
51733;DHT22;39139;53.144;6.244;2022-11-15T08:48:11;10.70;99.90
51733;DHT22;39139;53.144;6.244;2022-11-15T08:50:36;10.90;99.90
51733;DHT22;39139;53.144;6.244;2022-11-15T08:53:07;10.80;99.90
51733;DHT22;39139;53.144;6.244;2022-11-15T08:55:36;10.80;99.90
51733;DHT22;39139;53.144;6.244;2022-11-15T08:58:05;10.70;99.90
51733;DHT22;39139;53.144;6.244;2022-11-15T09:00:31;11.00;99.90
51733;DHT22;39139;53.144;6.244;2022-11-15T09:02:56;11.00;99.90
51733;DHT22;39139;53.144;6.244;2022-11-15T09:05:22;10.70;99.90
51733;DHT22;39139;53.144;6.244;2022-11-15T09:07:53;11.00;99.90
51733;DHT22;39139;53.144;6.244;2022-11-15T09:10:19;10.80;99.90
51733;DHT22;39139;53.144;6.244;2022-11-15T09:12:45;10.80;99.90
51733;DHT22;39139;53.144;6.244;2022-11-15T09:15:14;11.10;99.90
51733;DHT22;39139;53.144;6.244;2022-11-15T09:17:40;10.80;99.90
51733;DHT22;39139;53.144;6.244;2022-11-15T09:20:07;11.10;99.90
51733;DHT22;39139;53.144;6.244;2022-11-15T09:22:32;10.90;99.90
51733;DHT22;39139;53.144;6.244;2022-11-15T09:24:58;11.00;99.90
51733;DHT22;39139;53.144;6.244;2022-11-15T09:27:28;10.90;99.90
51733;DHT22;39139;53.144;6.244;2022-11-15T09:29:54;11.00;99.90
51733;DHT22;39139;53.144;6.244;2022-11-15T09:32:20;11.10;99.90
51733;DHT22;39139;53.144;6.244;2022-11-15T09:34:47;11.10;99.90
51733;DHT22;39139;53.144;6.244;2022-11-15T09:37:13;11.70;99.90
51733;DHT22;39139;53.144;6.244;2022-11-15T09:39:38;11.00;99.90
51733;DHT22;39139;53.144;6.244;2022-11-15T09:42:25;11.00;99.90
51733;DHT22;39139;53.144;6.244;2022-11-15T09:50:15;11.10;99.90
51733;DHT22;39139;53.144;6.244;2022-11-15T09:52:44;11.20;99.90
51733;DHT22;39139;53.144;6.244;2022-11-15T09:55:12;11.30;99.90
51733;DHT22;39139;53.144;6.244;2022-11-15T10:00:30;11.40;99.90
51733;DHT22;39139;53.144;6.244;2022-11-15T10:05:47;11.50;99.90
51733;DHT22;39139;53.144;6.244;2022-11-15T10:11:25;11.50;99.90
51733;DHT22;39139;53.144;6.244;2022-11-15T10:13:54;11.30;99.90
51733;DHT22;39139;53.144;6.244;2022-11-15T10:24:28;11.50;99.90
51733;DHT22;39139;53.144;6.244;2022-11-15T10:26:56;11.40;99.90
51733;DHT22;39139;53.144;6.244;2022-11-15T10:29:23;11.40;99.90
51733;DHT22;39139;53.144;6.244;2022-11-15T10:31:49;11.40;99.90
51733;DHT22;39139;53.144;6.244;2022-11-15T10:34:21;11.50;99.90
51733;DHT22;39139;53.144;6.244;2022-11-15T10:37:00;11.50;99.90
51733;DHT22;39139;53.144;6.244;2022-11-15T10:39:28;11.50;99.90
51733;DHT22;39139;53.144;6.244;2022-11-15T10:41:54;11.60;99.90
51733;DHT22;39139;53.144;6.244;2022-11-15T10:44:28;11.70;99.90
51733;DHT22;39139;53.144;6.244;2022-11-15T10:49:28;11.60;99.90
51733;DHT22;39139;53.144;6.244;2022-11-15T10:52:18;11.60;99.90
51733;DHT22;39139;53.144;6.244;2022-11-15T10:57:49;11.60;99.90
51733;DHT22;39139;53.144;6.244;2022-11-15T11:03:06;11.80;99.90
51733;DHT22;39139;53.144;6.244;2022-11-15T11:05:45;11.70;99.90
51733;DHT22;39139;53.144;6.244;2022-11-15T11:10:37;11.80;99.90
51733;DHT22;39139;53.144;6.244;2022-11-15T11:18:38;11.90;99.90
51733;DHT22;39139;53.144;6.244;2022-11-15T11:21:13;11.90;99.90
51733;DHT22;39139;53.144;6.244;2022-11-15T11:24:10;11.90;99.90
51733;DHT22;39139;53.144;6.244;2022-11-15T11:29:26;11.90;99.90
51733;DHT22;39139;53.144;6.244;2022-11-15T11:34:52;11.90;99.90
51733;DHT22;39139;53.144;6.244;2022-11-15T11:40:08;11.90;99.90
51733;DHT22;39139;53.144;6.244;2022-11-15T11:42:48;11.90;99.90
51733;DHT22;39139;53.144;6.244;2022-11-15T11:45:52;12.00;99.90
51733;DHT22;39139;53.144;6.244;2022-11-15T11:48:41;11.90;99.90
51733;DHT22;39139;53.144;6.244;2022-11-15T11:51:43;11.90;99.90
51733;DHT22;39139;53.144;6.244;2022-11-15T11:54:20;11.90;99.90
51733;DHT22;39139;53.144;6.244;2022-11-15T11:56:48;11.90;99.90
51733;DHT22;39139;53.144;6.244;2022-11-15T11:59:39;11.90;99.90
51733;DHT22;39139;53.144;6.244;2022-11-15T12:02:28;11.90;99.90
51733;DHT22;39139;53.144;6.244;2022-11-15T12:05:03;12.00;99.90
51733;DHT22;39139;53.144;6.244;2022-11-15T12:07:32;12.00;99.90
51733;DHT22;39139;53.144;6.244;2022-11-15T12:12:55;12.00;99.90
51733;DHT22;39139;53.144;6.244;2022-11-15T12:15:36;12.60;99.90
51733;DHT22;39139;53.144;6.244;2022-11-15T12:18:02;12.10;99.90
51733;DHT22;39139;53.144;6.244;2022-11-15T12:20:33;12.10;99.90
51733;DHT22;39139;53.144;6.244;2022-11-15T12:23:08;12.10;99.90
51733;DHT22;39139;53.144;6.244;2022-11-15T12:28:16;12.30;99.90
51733;DHT22;39139;53.144;6.244;2022-11-15T12:30:54;12.40;99.90
51733;DHT22;39139;53.144;6.244;2022-11-15T12:33:41;12.50;99.90
51733;DHT22;39139;53.144;6.244;2022-11-15T12:39:06;12.70;99.90
51733;DHT22;39139;53.144;6.244;2022-11-15T12:41:34;12.70;99.90
51733;DHT22;39139;53.144;6.244;2022-11-15T12:44:00;12.70;99.90
51733;DHT22;39139;53.144;6.244;2022-11-15T12:49:48;12.70;99.90
51733;DHT22;39139;53.144;6.244;2022-11-15T12:59:52;12.60;99.90
51733;DHT22;39139;53.144;6.244;2022-11-15T13:02:39;12.60;99.90
51733;DHT22;39139;53.144;6.244;2022-11-15T13:23:09;12.70;99.90
51733;DHT22;39139;53.144;6.244;2022-11-15T13:25:48;12.60;99.90
51733;DHT22;39139;53.144;6.244;2022-11-15T13:28:20;12.60;99.90
51733;DHT22;39139;53.144;6.244;2022-11-15T13:35:46;12.50;99.90
51733;DHT22;39139;53.144;6.244;2022-11-15T13:40:55;12.60;99.90
51733;DHT22;39139;53.144;6.244;2022-11-15T13:43:31;12.60;99.90
51733;DHT22;39139;53.144;6.244;2022-11-15T13:46:15;12.60;99.90
51733;DHT22;39139;53.144;6.244;2022-11-15T13:48:42;12.70;99.90
51733;DHT22;39139;53.144;6.244;2022-11-15T13:53:41;12.50;99.90
51733;DHT22;39139;53.144;6.244;2022-11-15T13:56:08;12.40;99.90
51733;DHT22;39139;53.144;6.244;2022-11-15T13:58:37;12.20;99.90
51733;DHT22;39139;53.144;6.244;2022-11-15T14:01:04;12.20;99.90
51733;DHT22;39139;53.144;6.244;2022-11-15T14:03:37;12.30;99.90
51733;DHT22;39139;53.144;6.244;2022-11-15T14:06:11;12.20;99.90
51733;DHT22;39139;53.144;6.244;2022-11-15T14:08:42;12.20;99.90
51733;DHT22;39139;53.144;6.244;2022-11-15T14:11:22;12.20;99.90
51733;DHT22;39139;53.144;6.244;2022-11-15T14:16:45;12.00;99.90
51733;DHT22;39139;53.144;6.244;2022-11-15T14:22:21;12.00;99.90
51733;DHT22;39139;53.144;6.244;2022-11-15T14:25:19;11.90;99.90
51733;DHT22;39139;53.144;6.244;2022-11-15T14:28:15;11.90;99.90
51733;DHT22;39139;53.144;6.244;2022-11-15T14:30:43;11.80;99.90
51733;DHT22;39139;53.144;6.244;2022-11-15T14:33:34;11.80;99.90
51733;DHT22;39139;53.144;6.244;2022-11-15T14:36:06;11.80;99.90
51733;DHT22;39139;53.144;6.244;2022-11-15T14:38:35;11.80;99.90
51733;DHT22;39139;53.144;6.244;2022-11-15T14:41:01;11.70;99.90
51733;DHT22;39139;53.144;6.244;2022-11-15T14:43:27;11.70;99.90
51733;DHT22;39139;53.144;6.244;2022-11-15T14:45:53;11.60;99.90
51733;DHT22;39139;53.144;6.244;2022-11-15T14:48:18;11.60;99.90
51733;DHT22;39139;53.144;6.244;2022-11-15T14:50:44;11.60;99.90
51733;DHT22;39139;53.144;6.244;2022-11-15T14:53:13;11.50;99.90
51733;DHT22;39139;53.144;6.244;2022-11-15T14:55:40;11.50;99.90
51733;DHT22;39139;53.144;6.244;2022-11-15T14:58:07;11.50;99.90
51733;DHT22;39139;53.144;6.244;2022-11-15T15:00:37;11.40;99.90
51733;DHT22;39139;53.144;6.244;2022-11-15T15:03:04;11.40;99.90
51733;DHT22;39139;53.144;6.244;2022-11-15T15:05:32;11.30;99.90
51733;DHT22;39139;53.144;6.244;2022-11-15T15:07:59;11.30;99.90
51733;DHT22;39139;53.144;6.244;2022-11-15T15:10:26;11.20;99.90
51733;DHT22;39139;53.144;6.244;2022-11-15T15:12:52;11.20;99.90
51733;DHT22;39139;53.144;6.244;2022-11-15T15:15:23;11.20;99.90
51733;DHT22;39139;53.144;6.244;2022-11-15T15:17:49;11.20;99.90
51733;DHT22;39139;53.144;6.244;2022-11-15T15:20:15;11.10;99.90
51733;DHT22;39139;53.144;6.244;2022-11-15T15:22:41;11.00;99.90
51733;DHT22;39139;53.144;6.244;2022-11-15T15:25:28;11.00;99.90
51733;DHT22;39139;53.144;6.244;2022-11-15T15:27:55;11.00;99.90
51733;DHT22;39139;53.144;6.244;2022-11-15T15:30:22;11.10;99.90
51733;DHT22;39139;53.144;6.244;2022-11-15T15:32:48;10.90;99.90
51733;DHT22;39139;53.144;6.244;2022-11-15T15:35:15;10.90;99.90
51733;DHT22;39139;53.144;6.244;2022-11-15T15:37:42;10.90;99.90
51733;DHT22;39139;53.144;6.244;2022-11-15T15:40:21;10.80;99.90
51733;DHT22;39139;53.144;6.244;2022-11-15T15:42:50;10.80;99.90
51733;DHT22;39139;53.144;6.244;2022-11-15T15:45:17;10.70;99.90
51733;DHT22;39139;53.144;6.244;2022-11-15T15:47:43;10.70;99.90
51733;DHT22;39139;53.144;6.244;2022-11-15T15:50:31;10.70;99.90
51733;DHT22;39139;53.144;6.244;2022-11-15T15:52:59;10.60;99.90
51733;DHT22;39139;53.144;6.244;2022-11-15T15:55:25;10.70;99.90
51733;DHT22;39139;53.144;6.244;2022-11-15T15:57:51;10.60;99.90
51733;DHT22;39139;53.144;6.244;2022-11-15T16:00:18;10.60;99.90
51733;DHT22;39139;53.144;6.244;2022-11-15T16:02:44;10.50;99.90
51733;DHT22;39139;53.144;6.244;2022-11-15T16:05:11;10.50;99.90
51733;DHT22;39139;53.144;6.244;2022-11-15T16:07:37;10.50;99.90
51733;DHT22;39139;53.144;6.244;2022-11-15T16:10:19;10.50;99.90
51733;DHT22;39139;53.144;6.244;2022-11-15T16:12:45;10.40;99.90
51733;DHT22;39139;53.144;6.244;2022-11-15T16:15:10;10.40;99.90
51733;DHT22;39139;53.144;6.244;2022-11-15T16:17:52;10.30;99.90
51733;DHT22;39139;53.144;6.244;2022-11-15T16:23:07;10.30;99.90
51733;DHT22;39139;53.144;6.244;2022-11-15T16:25:48;10.40;99.90
51733;DHT22;39139;53.144;6.244;2022-11-15T16:28:23;10.30;99.90
51733;DHT22;39139;53.144;6.244;2022-11-15T16:31:08;10.30;99.90
51733;DHT22;39139;53.144;6.244;2022-11-15T16:33:34;10.40;99.90
51733;DHT22;39139;53.144;6.244;2022-11-15T16:36:00;10.40;99.90
51733;DHT22;39139;53.144;6.244;2022-11-15T16:38:29;10.50;99.90
51733;DHT22;39139;53.144;6.244;2022-11-15T16:40:55;10.40;99.90
51733;DHT22;39139;53.144;6.244;2022-11-15T16:43:21;10.50;99.90
51733;DHT22;39139;53.144;6.244;2022-11-15T16:45:46;10.50;99.90
51733;DHT22;39139;53.144;6.244;2022-11-15T16:48:24;10.50;99.90
51733;DHT22;39139;53.144;6.244;2022-11-15T16:50:53;10.60;99.90
51733;DHT22;39139;53.144;6.244;2022-11-15T16:53:19;10.60;99.90
51733;DHT22;39139;53.144;6.244;2022-11-15T16:55:45;10.60;99.90
51733;DHT22;39139;53.144;6.244;2022-11-15T16:58:11;10.90;99.90
51733;DHT22;39139;53.144;6.244;2022-11-15T17:00:36;10.60;99.90
51733;DHT22;39139;53.144;6.244;2022-11-15T17:03:02;10.70;99.90
51733;DHT22;39139;53.144;6.244;2022-11-15T17:05:28;10.70;99.90
51733;DHT22;39139;53.144;6.244;2022-11-15T17:07:55;10.70;99.90
51733;DHT22;39139;53.144;6.244;2022-11-15T17:10:22;10.60;99.90
51733;DHT22;39139;53.144;6.244;2022-11-15T17:12:48;10.70;99.90
51733;DHT22;39139;53.144;6.244;2022-11-15T17:15:15;10.80;99.90
51733;DHT22;39139;53.144;6.244;2022-11-15T17:17:41;10.80;99.90
51733;DHT22;39139;53.144;6.244;2022-11-15T17:20:13;10.80;99.90
51733;DHT22;39139;53.144;6.244;2022-11-15T17:22:39;10.80;99.90
51733;DHT22;39139;53.144;6.244;2022-11-15T17:25:04;10.80;99.90
51733;DHT22;39139;53.144;6.244;2022-11-15T17:27:30;10.80;99.90
51733;DHT22;39139;53.144;6.244;2022-11-15T17:29:56;10.80;99.90
51733;DHT22;39139;53.144;6.244;2022-11-15T17:32:22;10.80;99.90
51733;DHT22;39139;53.144;6.244;2022-11-15T17:34:47;10.80;99.90
51733;DHT22;39139;53.144;6.244;2022-11-15T17:37:13;10.80;99.90
51733;DHT22;39139;53.144;6.244;2022-11-15T17:39:39;10.80;99.90
51733;DHT22;39139;53.144;6.244;2022-11-15T17:42:04;10.80;99.90
51733;DHT22;39139;53.144;6.244;2022-11-15T17:44:31;10.80;99.90